sensor_id;sensor_type;location;lat;lon;timestamp;pressure;altitude;pressure_sealevel;temperature;humidity
27334;BME280;14817;57.104;-2.094;2023-04-25T00:00:55;100694.44;;;2.15;100.00
27334;BME280;14817;57.104;-2.094;2023-04-25T00:03:23;100695.88;;;2.21;100.00
27334;BME280;14817;57.104;-2.094;2023-04-25T00:05:51;100699.19;;;2.24;100.00
27334;BME280;14817;57.104;-2.094;2023-04-25T00:08:18;100701.06;;;2.22;100.00
27334;BME280;14817;57.104;-2.094;2023-04-25T00:10:45;100707.00;;;2.26;100.00
27334;BME280;14817;57.104;-2.094;2023-04-25T00:13:12;100716.34;;;2.46;100.00
27334;BME280;14817;57.104;-2.094;2023-04-25T00:15:40;100738.63;;;2.42;100.00
27334;BME280;14817;57.104;-2.094;2023-04-25T00:18:08;100727.38;;;2.10;100.00
27334;BME280;14817;57.104;-2.094;2023-04-25T00:20:35;100705.97;;;2.14;100.00
27334;BME280;14817;57.104;-2.094;2023-04-25T00:23:02;100702.47;;;1.99;100.00
27334;BME280;14817;57.104;-2.094;2023-04-25T00:25:29;100706.22;;;1.95;100.00
27334;BME280;14817;57.104;-2.094;2023-04-25T00:27:55;100701.59;;;1.84;100.00
27334;BME280;14817;57.104;-2.094;2023-04-25T00:30:23;100703.06;;;1.74;100.00
27334;BME280;14817;57.104;-2.094;2023-04-25T00:32:50;100703.28;;;1.86;100.00
27334;BME280;14817;57.104;-2.094;2023-04-25T00:35:17;100701.03;;;1.79;100.00
27334;BME280;14817;57.104;-2.094;2023-04-25T00:37:44;100698.38;;;1.79;100.00
27334;BME280;14817;57.104;-2.094;2023-04-25T00:40:11;100708.75;;;1.82;100.00
27334;BME280;14817;57.104;-2.094;2023-04-25T00:42:39;100701.03;;;1.79;100.00
27334;BME280;14817;57.104;-2.094;2023-04-25T00:45:07;100697.44;;;1.80;100.00
27334;BME280;14817;57.104;-2.094;2023-04-25T00:47:39;100701.47;;;1.72;100.00
27334;BME280;14817;57.104;-2.094;2023-04-25T00:50:07;100698.91;;;1.70;100.00
27334;BME280;14817;57.104;-2.094;2023-04-25T00:52:37;100714.75;;;1.70;100.00
27334;BME280;14817;57.104;-2.094;2023-04-25T00:55:04;100707.78;;;1.69;100.00
27334;BME280;14817;57.104;-2.094;2023-04-25T00:57:31;100708.91;;;1.65;100.00
27334;BME280;14817;57.104;-2.094;2023-04-25T00:59:58;100700.78;;;1.68;100.00
27334;BME280;14817;57.104;-2.094;2023-04-25T01:02:27;100709.59;;;1.69;100.00
27334;BME280;14817;57.104;-2.094;2023-04-25T01:04:55;100706.19;;;1.67;100.00
27334;BME280;14817;57.104;-2.094;2023-04-25T01:07:22;100715.78;;;1.68;100.00
27334;BME280;14817;57.104;-2.094;2023-04-25T01:09:51;100710.25;;;1.72;100.00
27334;BME280;14817;57.104;-2.094;2023-04-25T01:12:18;100717.13;;;1.75;100.00
27334;BME280;14817;57.104;-2.094;2023-04-25T01:14:46;100713.06;;;1.69;100.00
27334;BME280;14817;57.104;-2.094;2023-04-25T01:17:13;100718.06;;;1.74;100.00
27334;BME280;14817;57.104;-2.094;2023-04-25T01:19:41;100712.22;;;1.69;100.00
27334;BME280;14817;57.104;-2.094;2023-04-25T01:22:08;100707.44;;;1.75;100.00
27334;BME280;14817;57.104;-2.094;2023-04-25T01:24:37;100710.84;;;1.77;100.00
27334;BME280;14817;57.104;-2.094;2023-04-25T01:27:04;100707.59;;;1.72;100.00
27334;BME280;14817;57.104;-2.094;2023-04-25T01:29:32;100707.50;;;1.74;100.00
27334;BME280;14817;57.104;-2.094;2023-04-25T01:32:00;100706.28;;;1.65;100.00
27334;BME280;14817;57.104;-2.094;2023-04-25T01:34:27;100711.56;;;1.65;100.00
27334;BME280;14817;57.104;-2.094;2023-04-25T01:36:59;100712.44;;;1.80;100.00
27334;BME280;14817;57.104;-2.094;2023-04-25T01:39:27;100705.03;;;1.71;100.00
27334;BME280;14817;57.104;-2.094;2023-04-25T01:41:54;100708.31;;;1.60;100.00
27334;BME280;14817;57.104;-2.094;2023-04-25T01:44:23;100705.69;;;1.60;100.00
27334;BME280;14817;57.104;-2.094;2023-04-25T01:46:50;100701.91;;;1.64;100.00
27334;BME280;14817;57.104;-2.094;2023-04-25T01:49:17;100688.63;;;1.66;100.00
27334;BME280;14817;57.104;-2.094;2023-04-25T01:51:44;100691.94;;;1.69;100.00
27334;BME280;14817;57.104;-2.094;2023-04-25T01:54:12;100690.44;;;1.65;100.00
27334;BME280;14817;57.104;-2.094;2023-04-25T01:56:39;100687.41;;;1.57;100.00
27334;BME280;14817;57.104;-2.094;2023-04-25T01:59:09;100696.06;;;1.59;100.00
27334;BME280;14817;57.104;-2.094;2023-04-25T02:01:45;100706.63;;;1.59;100.00
27334;BME280;14817;57.104;-2.094;2023-04-25T02:04:20;100705.59;;;1.61;100.00
27334;BME280;14817;57.104;-2.094;2023-04-25T02:06:47;100703.72;;;1.63;100.00
27334;BME280;14817;57.104;-2.094;2023-04-25T02:09:15;100705.03;;;1.71;100.00
27334;BME280;14817;57.104;-2.094;2023-04-25T02:11:46;100698.28;;;1.67;100.00
27334;BME280;14817;57.104;-2.094;2023-04-25T02:14:26;100707.13;;;1.66;100.00
27334;BME280;14817;57.104;-2.094;2023-04-25T02:17:01;100703.78;;;1.62;100.00
27334;BME280;14817;57.104;-2.094;2023-04-25T02:19:30;100707.47;;;1.59;100.00
27334;BME280;14817;57.104;-2.094;2023-04-25T02:21:56;100709.00;;;1.63;100.00
27334;BME280;14817;57.104;-2.094;2023-04-25T02:24:24;100711.91;;;1.59;100.00
27334;BME280;14817;57.104;-2.094;2023-04-25T02:26:50;100699.84;;;1.55;100.00
27334;BME280;14817;57.104;-2.094;2023-04-25T02:29:17;100694.16;;;1.47;100.00
27334;BME280;14817;57.104;-2.094;2023-04-25T02:31:44;100702.16;;;1.45;100.00
27334;BME280;14817;57.104;-2.094;2023-04-25T02:34:11;100703.44;;;1.38;100.00
27334;BME280;14817;57.104;-2.094;2023-04-25T02:36:38;100708.72;;;1.38;100.00
27334;BME280;14817;57.104;-2.094;2023-04-25T02:39:04;100708.16;;;1.33;100.00
27334;BME280;14817;57.104;-2.094;2023-04-25T02:41:31;100703.03;;;1.30;100.00
27334;BME280;14817;57.104;-2.094;2023-04-25T02:43:58;100710.13;;;1.29;100.00
27334;BME280;14817;57.104;-2.094;2023-04-25T02:46:25;100715.75;;;1.23;100.00
27334;BME280;14817;57.104;-2.094;2023-04-25T02:49:05;100712.19;;;1.24;100.00
27334;BME280;14817;57.104;-2.094;2023-04-25T02:51:33;100718.97;;;1.28;100.00
27334;BME280;14817;57.104;-2.094;2023-04-25T02:54:00;100719.91;;;1.27;100.00
27334;BME280;14817;57.104;-2.094;2023-04-25T02:56:27;100720.31;;;1.19;100.00
27334;BME280;14817;57.104;-2.094;2023-04-25T02:58:57;100718.56;;;1.20;100.00
27334;BME280;14817;57.104;-2.094;2023-04-25T03:01:25;100714.06;;;1.22;100.00
27334;BME280;14817;57.104;-2.094;2023-04-25T03:03:52;100715.47;;;1.28;100.00
27334;BME280;14817;57.104;-2.094;2023-04-25T03:06:19;100716.59;;;1.23;100.00
27334;BME280;14817;57.104;-2.094;2023-04-25T03:08:46;100718.97;;;1.28;100.00
27334;BME280;14817;57.104;-2.094;2023-04-25T03:11:13;100714.22;;;1.19;100.00
27334;BME280;14817;57.104;-2.094;2023-04-25T03:13:41;100706.22;;;1.20;100.00
27334;BME280;14817;57.104;-2.094;2023-04-25T03:16:09;100712.53;;;1.18;100.00
27334;BME280;14817;57.104;-2.094;2023-04-25T03:18:36;100706.56;;;1.14;100.00
27334;BME280;14817;57.104;-2.094;2023-04-25T03:21:03;100713.72;;;1.12;100.00
27334;BME280;14817;57.104;-2.094;2023-04-25T03:23:30;100719.19;;;1.09;100.00
27334;BME280;14817;57.104;-2.094;2023-04-25T03:25:57;100718.31;;;1.09;100.00
27334;BME280;14817;57.104;-2.094;2023-04-25T03:28:24;100712.25;;;1.07;100.00
27334;BME280;14817;57.104;-2.094;2023-04-25T03:30:52;100708.97;;;1.03;100.00
27334;BME280;14817;57.104;-2.094;2023-04-25T03:33:18;100719.69;;;1.00;100.00
27334;BME280;14817;57.104;-2.094;2023-04-25T03:35:46;100708.47;;;0.96;100.00
27334;BME280;14817;57.104;-2.094;2023-04-25T03:38:12;100709.25;;;0.98;100.00
27334;BME280;14817;57.104;-2.094;2023-04-25T03:40:40;100708.47;;;0.96;100.00
27334;BME280;14817;57.104;-2.094;2023-04-25T03:43:13;100713.75;;;0.96;100.00
27334;BME280;14817;57.104;-2.094;2023-04-25T03:45:46;100702.09;;;1.00;100.00
27334;BME280;14817;57.104;-2.094;2023-04-25T03:48:15;100709.38;;;0.95;100.00
27334;BME280;14817;57.104;-2.094;2023-04-25T03:50:42;100707.09;;;0.89;100.00
27334;BME280;14817;57.104;-2.094;2023-04-25T03:53:08;100711.38;;;0.92;100.00
27334;BME280;14817;57.104;-2.094;2023-04-25T03:55:55;100709.66;;;0.91;100.00
27334;BME280;14817;57.104;-2.094;2023-04-25T03:58:22;100724.78;;;0.87;100.00
27334;BME280;14817;57.104;-2.094;2023-04-25T04:00:51;100720.28;;;0.89;100.00
27334;BME280;14817;57.104;-2.094;2023-04-25T04:03:18;100716.22;;;0.84;100.00
27334;BME280;14817;57.104;-2.094;2023-04-25T04:05:46;100719.34;;;0.74;100.00
27334;BME280;14817;57.104;-2.094;2023-04-25T04:08:13;100723.63;;;0.77;100.00
27334;BME280;14817;57.104;-2.094;2023-04-25T04:10:40;100727.34;;;0.73;100.00
27334;BME280;14817;57.104;-2.094;2023-04-25T04:13:08;100724.09;;;0.68;100.00
27334;BME280;14817;57.104;-2.094;2023-04-25T04:15:34;100723.84;;;0.72;100.00
27334;BME280;14817;57.104;-2.094;2023-04-25T04:18:01;100722.31;;;0.68;100.00
27334;BME280;14817;57.104;-2.094;2023-04-25T04:20:30;100731.09;;;0.69;100.00
27334;BME280;14817;57.104;-2.094;2023-04-25T04:22:57;100719.44;;;0.73;100.00
27334;BME280;14817;57.104;-2.094;2023-04-25T04:25:24;100725.97;;;0.66;100.00
27334;BME280;14817;57.104;-2.094;2023-04-25T04:28:18;100719.78;;;0.67;100.00
27334;BME280;14817;57.104;-2.094;2023-04-25T04:30:58;100712.47;;;0.72;100.00
27334;BME280;14817;57.104;-2.094;2023-04-25T04:33:27;100720.28;;;0.73;100.00
27334;BME280;14817;57.104;-2.094;2023-04-25T04:35:58;100725.13;;;0.65;100.00
27334;BME280;14817;57.104;-2.094;2023-04-25T04:38:26;100717.81;;;0.70;100.00
27334;BME280;14817;57.104;-2.094;2023-04-25T04:40:56;100717.47;;;0.76;100.00
27334;BME280;14817;57.104;-2.094;2023-04-25T04:43:31;100719.25;;;0.76;100.00
27334;BME280;14817;57.104;-2.094;2023-04-25T04:46:26;100717.56;;;0.75;100.00
27334;BME280;14817;57.104;-2.094;2023-04-25T04:49:11;100717.72;;;0.72;100.00
27334;BME280;14817;57.104;-2.094;2023-04-25T04:51:44;100722.47;;;0.81;100.00
27334;BME280;14817;57.104;-2.094;2023-04-25T04:54:30;100722.75;;;0.76;100.00
27334;BME280;14817;57.104;-2.094;2023-04-25T04:57:10;100730.66;;;0.76;100.00
27334;BME280;14817;57.104;-2.094;2023-04-25T05:00:10;100744.53;;;0.80;100.00
27334;BME280;14817;57.104;-2.094;2023-04-25T05:02:52;100743.56;;;0.81;100.00
27334;BME280;14817;57.104;-2.094;2023-04-25T05:05:49;100737.53;;;0.79;100.00
27334;BME280;14817;57.104;-2.094;2023-04-25T05:08:31;100740.94;;;0.81;100.00
27334;BME280;14817;57.104;-2.094;2023-04-25T05:11:16;100738.91;;;0.86;100.00
27334;BME280;14817;57.104;-2.094;2023-04-25T05:14:02;100739.84;;;0.85;100.00
27334;BME280;14817;57.104;-2.094;2023-04-25T05:17:01;100745.09;;;0.85;100.00
27334;BME280;14817;57.104;-2.094;2023-04-25T05:19:56;100752.03;;;0.88;100.00
27334;BME280;14817;57.104;-2.094;2023-04-25T05:22:38;100749.03;;;0.94;100.00
27334;BME280;14817;57.104;-2.094;2023-04-25T05:25:19;100746.22;;;0.97;100.00
27334;BME280;14817;57.104;-2.094;2023-04-25T05:27:56;100753.47;;;1.09;100.00
27334;BME280;14817;57.104;-2.094;2023-04-25T05:30:43;100755.22;;;1.09;100.00
27334;BME280;14817;57.104;-2.094;2023-04-25T05:33:15;100759.41;;;1.13;100.00
27334;BME280;14817;57.104;-2.094;2023-04-25T05:35:44;100760.06;;;1.32;100.00
27334;BME280;14817;57.104;-2.094;2023-04-25T05:38:11;100758.44;;;1.30;100.00
27334;BME280;14817;57.104;-2.094;2023-04-25T05:40:56;100767.88;;;1.34;100.00
27334;BME280;14817;57.104;-2.094;2023-04-25T05:43:58;100780.06;;;1.36;100.00
27334;BME280;14817;57.104;-2.094;2023-04-25T05:46:28;100777.13;;;1.57;100.00
27334;BME280;14817;57.104;-2.094;2023-04-25T05:49:22;100775.13;;;2.21;100.00
27334;BME280;14817;57.104;-2.094;2023-04-25T05:52:19;100774.00;;;2.82;100.00
27334;BME280;14817;57.104;-2.094;2023-04-25T05:55:02;100765.00;;;3.54;100.00
27334;BME280;14817;57.104;-2.094;2023-04-25T05:57:31;100763.31;;;3.53;100.00
27334;BME280;14817;57.104;-2.094;2023-04-25T05:59:58;100762.38;;;4.45;100.00
27334;BME280;14817;57.104;-2.094;2023-04-25T06:02:38;100767.78;;;4.43;100.00
27334;BME280;14817;57.104;-2.094;2023-04-25T06:05:07;100768.47;;;4.71;100.00
27334;BME280;14817;57.104;-2.094;2023-04-25T06:07:35;100770.91;;;5.24;100.00
27334;BME280;14817;57.104;-2.094;2023-04-25T06:10:03;100768.25;;;4.87;100.00
27334;BME280;14817;57.104;-2.094;2023-04-25T06:12:33;100777.53;;;4.17;100.00
27334;BME280;14817;57.104;-2.094;2023-04-25T06:15:00;100778.91;;;3.97;100.00
27334;BME280;14817;57.104;-2.094;2023-04-25T06:17:30;100784.94;;;3.59;100.00
27334;BME280;14817;57.104;-2.094;2023-04-25T06:19:57;100787.22;;;3.78;100.00
27334;BME280;14817;57.104;-2.094;2023-04-25T06:22:24;100794.38;;;3.36;100.00
27334;BME280;14817;57.104;-2.094;2023-04-25T06:24:51;100783.53;;;2.99;100.00
27334;BME280;14817;57.104;-2.094;2023-04-25T06:27:17;100790.63;;;2.70;100.00
27334;BME280;14817;57.104;-2.094;2023-04-25T06:29:45;100790.81;;;2.53;100.00
27334;BME280;14817;57.104;-2.094;2023-04-25T06:32:13;100796.69;;;2.43;100.00
27334;BME280;14817;57.104;-2.094;2023-04-25T06:34:40;100798.28;;;2.60;100.00
27334;BME280;14817;57.104;-2.094;2023-04-25T06:37:07;100799.44;;;2.56;100.00
27334;BME280;14817;57.104;-2.094;2023-04-25T06:39:34;100796.03;;;2.54;100.00
27334;BME280;14817;57.104;-2.094;2023-04-25T06:42:06;100782.47;;;2.88;100.00
27334;BME280;14817;57.104;-2.094;2023-04-25T06:44:43;100774.25;;;4.26;100.00
27334;BME280;14817;57.104;-2.094;2023-04-25T06:47:12;100772.38;;;3.36;100.00
27334;BME280;14817;57.104;-2.094;2023-04-25T06:49:41;100785.56;;;3.09;100.00
27334;BME280;14817;57.104;-2.094;2023-04-25T06:52:09;100779.59;;;3.74;100.00
27334;BME280;14817;57.104;-2.094;2023-04-25T06:54:38;100771.81;;;5.60;100.00
27334;BME280;14817;57.104;-2.094;2023-04-25T06:57:27;100766.84;;;5.90;100.00
27334;BME280;14817;57.104;-2.094;2023-04-25T06:59:58;100765.38;;;6.10;100.00
27334;BME280;14817;57.104;-2.094;2023-04-25T07:02:27;100763.41;;;7.25;100.00
27334;BME280;14817;57.104;-2.094;2023-04-25T07:04:55;100765.63;;;7.52;100.00
27334;BME280;14817;57.104;-2.094;2023-04-25T07:07:26;100775.94;;;7.46;100.00
27334;BME280;14817;57.104;-2.094;2023-04-25T07:09:56;100770.50;;;6.81;100.00
27334;BME280;14817;57.104;-2.094;2023-04-25T07:12:23;100764.91;;;7.50;100.00
27334;BME280;14817;57.104;-2.094;2023-04-25T07:14:50;100772.34;;;7.68;100.00
27334;BME280;14817;57.104;-2.094;2023-04-25T07:17:17;100770.25;;;8.46;100.00
27334;BME280;14817;57.104;-2.094;2023-04-25T07:19:44;100768.31;;;8.57;100.00
27334;BME280;14817;57.104;-2.094;2023-04-25T07:22:11;100773.03;;;7.81;100.00
27334;BME280;14817;57.104;-2.094;2023-04-25T07:24:40;100773.75;;;8.25;100.00
27334;BME280;14817;57.104;-2.094;2023-04-25T07:27:11;100773.19;;;8.73;100.00
27334;BME280;14817;57.104;-2.094;2023-04-25T07:29:48;100767.22;;;7.44;100.00
27334;BME280;14817;57.104;-2.094;2023-04-25T07:32:15;100772.31;;;8.21;100.00
27334;BME280;14817;57.104;-2.094;2023-04-25T07:34:42;100780.19;;;9.15;100.00
27334;BME280;14817;57.104;-2.094;2023-04-25T07:37:09;100776.88;;;7.88;100.00
27334;BME280;14817;57.104;-2.094;2023-04-25T07:39:47;100779.50;;;8.42;100.00
27334;BME280;14817;57.104;-2.094;2023-04-25T07:42:14;100776.78;;;8.63;100.00
27334;BME280;14817;57.104;-2.094;2023-04-25T07:44:43;100774.66;;;9.57;100.00
27334;BME280;14817;57.104;-2.094;2023-04-25T07:47:12;100786.00;;;8.79;100.00
27334;BME280;14817;57.104;-2.094;2023-04-25T07:49:40;100787.16;;;8.14;100.00
27334;BME280;14817;57.104;-2.094;2023-04-25T07:52:07;100790.53;;;8.58;100.00
27334;BME280;14817;57.104;-2.094;2023-04-25T07:54:37;100794.09;;;9.69;100.00
27334;BME280;14817;57.104;-2.094;2023-04-25T07:57:11;100783.66;;;9.66;100.00
27334;BME280;14817;57.104;-2.094;2023-04-25T07:59:42;100796.66;;;9.10;100.00
27334;BME280;14817;57.104;-2.094;2023-04-25T08:02:09;100793.13;;;9.10;100.00
27334;BME280;14817;57.104;-2.094;2023-04-25T08:04:38;100787.59;;;9.52;100.00
27334;BME280;14817;57.104;-2.094;2023-04-25T08:07:07;100790.81;;;9.55;100.00
27334;BME280;14817;57.104;-2.094;2023-04-25T08:09:41;100796.06;;;9.07;100.00
27334;BME280;14817;57.104;-2.094;2023-04-25T08:12:15;100790.09;;;8.84;100.00
27334;BME280;14817;57.104;-2.094;2023-04-25T08:14:42;100788.97;;;9.27;100.00
27334;BME280;14817;57.104;-2.094;2023-04-25T08:17:10;100791.81;;;10.13;100.00
27334;BME280;14817;57.104;-2.094;2023-04-25T08:19:39;100791.47;;;8.26;100.00
27334;BME280;14817;57.104;-2.094;2023-04-25T08:22:13;100789.63;;;9.09;100.00
27334;BME280;14817;57.104;-2.094;2023-04-25T08:24:49;100798.97;;;9.44;100.00
27334;BME280;14817;57.104;-2.094;2023-04-25T08:27:18;100793.78;;;9.62;100.00
27334;BME280;14817;57.104;-2.094;2023-04-25T08:29:45;100788.44;;;9.91;100.00
27334;BME280;14817;57.104;-2.094;2023-04-25T08:32:13;100794.34;;;9.46;100.00
27334;BME280;14817;57.104;-2.094;2023-04-25T08:34:50;100808.84;;;9.63;100.00
27334;BME280;14817;57.104;-2.094;2023-04-25T08:37:21;100805.13;;;9.15;100.00
27334;BME280;14817;57.104;-2.094;2023-04-25T08:39:54;100803.81;;;9.10;100.00
27334;BME280;14817;57.104;-2.094;2023-04-25T08:42:42;100810.25;;;9.77;100.00
27334;BME280;14817;57.104;-2.094;2023-04-25T08:45:10;100798.97;;;10.41;100.00
27334;BME280;14817;57.104;-2.094;2023-04-25T08:47:38;100808.28;;;9.98;100.00
27334;BME280;14817;57.104;-2.094;2023-04-25T08:50:07;100816.44;;;9.48;100.00
27334;BME280;14817;57.104;-2.094;2023-04-25T08:52:44;100810.66;;;10.11;100.00
27334;BME280;14817;57.104;-2.094;2023-04-25T08:55:13;100809.41;;;9.76;100.00
27334;BME280;14817;57.104;-2.094;2023-04-25T08:57:42;100804.25;;;9.15;100.00
27334;BME280;14817;57.104;-2.094;2023-04-25T09:00:12;100808.66;;;9.35;100.00
27334;BME280;14817;57.104;-2.094;2023-04-25T09:02:42;100822.34;;;9.61;100.00
27334;BME280;14817;57.104;-2.094;2023-04-25T09:05:13;100806.28;;;10.49;100.00
27334;BME280;14817;57.104;-2.094;2023-04-25T09:07:40;100806.81;;;10.62;100.00
27334;BME280;14817;57.104;-2.094;2023-04-25T09:10:07;100812.50;;;10.40;100.00
27334;BME280;14817;57.104;-2.094;2023-04-25T09:12:36;100810.97;;;9.79;100.00
27334;BME280;14817;57.104;-2.094;2023-04-25T09:15:11;100823.78;;;9.95;100.00
27334;BME280;14817;57.104;-2.094;2023-04-25T09:17:56;100815.34;;;9.01;100.00
27334;BME280;14817;57.104;-2.094;2023-04-25T09:20:27;100819.44;;;8.53;100.00
27334;BME280;14817;57.104;-2.094;2023-04-25T09:23:04;100831.84;;;7.02;100.00
27334;BME280;14817;57.104;-2.094;2023-04-25T09:25:35;100833.63;;;6.45;100.00
27334;BME280;14817;57.104;-2.094;2023-04-25T09:28:07;100835.75;;;5.93;100.00
27334;BME280;14817;57.104;-2.094;2023-04-25T09:30:35;100834.25;;;6.60;100.00
27334;BME280;14817;57.104;-2.094;2023-04-25T09:33:16;100829.16;;;6.91;100.00
27334;BME280;14817;57.104;-2.094;2023-04-25T09:35:47;100839.13;;;7.98;100.00
27334;BME280;14817;57.104;-2.094;2023-04-25T09:38:32;100828.78;;;8.68;100.00
27334;BME280;14817;57.104;-2.094;2023-04-25T09:41:08;100831.44;;;9.20;100.00
27334;BME280;14817;57.104;-2.094;2023-04-25T09:43:45;100831.84;;;8.54;100.00
27334;BME280;14817;57.104;-2.094;2023-04-25T09:46:14;100827.88;;;8.16;100.00
27334;BME280;14817;57.104;-2.094;2023-04-25T09:48:52;100829.38;;;8.09;100.00
27334;BME280;14817;57.104;-2.094;2023-04-25T09:51:31;100828.03;;;8.56;100.00
27334;BME280;14817;57.104;-2.094;2023-04-25T09:53:59;100834.41;;;9.27;100.00
27334;BME280;14817;57.104;-2.094;2023-04-25T09:56:36;100838.00;;;9.95;100.00
27334;BME280;14817;57.104;-2.094;2023-04-25T09:59:06;100845.88;;;9.68;100.00
27334;BME280;14817;57.104;-2.094;2023-04-25T10:01:36;100850.69;;;9.24;100.00
27334;BME280;14817;57.104;-2.094;2023-04-25T10:04:12;100841.56;;;8.86;100.00
27334;BME280;14817;57.104;-2.094;2023-04-25T10:07:01;100846.69;;;9.39;100.00
27334;BME280;14817;57.104;-2.094;2023-04-25T10:09:31;100841.72;;;8.94;100.00
27334;BME280;14817;57.104;-2.094;2023-04-25T10:12:02;100842.78;;;8.39;100.00
27334;BME280;14817;57.104;-2.094;2023-04-25T10:14:31;100845.75;;;8.57;100.00
27334;BME280;14817;57.104;-2.094;2023-04-25T10:16:58;100840.41;;;8.57;100.00
27334;BME280;14817;57.104;-2.094;2023-04-25T10:19:27;100858.03;;;7.95;100.00
27334;BME280;14817;57.104;-2.094;2023-04-25T10:22:02;100852.31;;;7.13;100.00
27334;BME280;14817;57.104;-2.094;2023-04-25T10:24:30;100852.19;;;7.03;100.00
27334;BME280;14817;57.104;-2.094;2023-04-25T10:26:57;100854.47;;;7.30;100.00
27334;BME280;14817;57.104;-2.094;2023-04-25T10:29:25;100843.78;;;8.59;100.00
27334;BME280;14817;57.104;-2.094;2023-04-25T10:31:52;100843.41;;;8.95;100.00
27334;BME280;14817;57.104;-2.094;2023-04-25T10:34:24;100851.47;;;8.74;100.00
27334;BME280;14817;57.104;-2.094;2023-04-25T10:36:51;100855.53;;;9.49;100.00
27334;BME280;14817;57.104;-2.094;2023-04-25T10:39:27;100845.25;;;8.94;100.00
27334;BME280;14817;57.104;-2.094;2023-04-25T10:41:58;100855.31;;;8.39;100.00
27334;BME280;14817;57.104;-2.094;2023-04-25T10:44:29;100848.41;;;8.57;100.00
27334;BME280;14817;57.104;-2.094;2023-04-25T10:46:58;100853.63;;;8.59;100.00
27334;BME280;14817;57.104;-2.094;2023-04-25T10:49:30;100854.44;;;9.61;100.00
27334;BME280;14817;57.104;-2.094;2023-04-25T10:52:17;100859.41;;;9.26;100.00
27334;BME280;14817;57.104;-2.094;2023-04-25T10:54:52;100861.84;;;8.14;100.00
27334;BME280;14817;57.104;-2.094;2023-04-25T10:57:38;100871.97;;;7.67;100.00
27334;BME280;14817;57.104;-2.094;2023-04-25T11:00:07;100865.50;;;7.26;100.00
27334;BME280;14817;57.104;-2.094;2023-04-25T11:02:51;100867.06;;;7.06;100.00
27334;BME280;14817;57.104;-2.094;2023-04-25T11:05:38;100865.72;;;7.34;100.00
27334;BME280;14817;57.104;-2.094;2023-04-25T11:08:36;100872.47;;;7.49;100.00
27334;BME280;14817;57.104;-2.094;2023-04-25T11:11:08;100855.69;;;8.13;100.00
27334;BME280;14817;57.104;-2.094;2023-04-25T11:13:34;100859.53;;;8.84;100.00
27334;BME280;14817;57.104;-2.094;2023-04-25T11:16:01;100870.25;;;7.77;100.00
27334;BME280;14817;57.104;-2.094;2023-04-25T11:18:41;100887.94;;;6.65;100.00
27334;BME280;14817;57.104;-2.094;2023-04-25T11:21:08;100884.34;;;6.78;100.00
27334;BME280;14817;57.104;-2.094;2023-04-25T11:23:35;100894.44;;;6.50;100.00
27334;BME280;14817;57.104;-2.094;2023-04-25T11:26:03;100894.97;;;6.55;100.00
27334;BME280;14817;57.104;-2.094;2023-04-25T11:28:30;100889.28;;;6.60;100.00
27334;BME280;14817;57.104;-2.094;2023-04-25T11:30:57;100880.47;;;6.70;100.00
27334;BME280;14817;57.104;-2.094;2023-04-25T11:33:25;100888.34;;;7.06;100.00
27334;BME280;14817;57.104;-2.094;2023-04-25T11:35:54;100878.50;;;7.63;100.00
27334;BME280;14817;57.104;-2.094;2023-04-25T11:38:24;100870.06;;;7.12;100.00
27334;BME280;14817;57.104;-2.094;2023-04-25T11:40:54;100869.09;;;7.91;100.00
27334;BME280;14817;57.104;-2.094;2023-04-25T11:43:22;100873.53;;;8.02;100.00
27334;BME280;14817;57.104;-2.094;2023-04-25T11:45:52;100864.50;;;8.67;100.00
27334;BME280;14817;57.104;-2.094;2023-04-25T11:48:19;100866.53;;;8.01;100.00
27334;BME280;14817;57.104;-2.094;2023-04-25T11:50:53;100871.59;;;8.04;100.00
27334;BME280;14817;57.104;-2.094;2023-04-25T11:53:20;100869.56;;;8.28;100.00
27334;BME280;14817;57.104;-2.094;2023-04-25T11:55:47;100867.91;;;8.16;100.00
27334;BME280;14817;57.104;-2.094;2023-04-25T11:58:14;100862.47;;;8.38;100.00
27334;BME280;14817;57.104;-2.094;2023-04-25T12:00:42;100865.19;;;8.90;100.00
27334;BME280;14817;57.104;-2.094;2023-04-25T12:03:17;100864.41;;;8.36;100.00
27334;BME280;14817;57.104;-2.094;2023-04-25T12:05:45;100854.31;;;8.51;100.00
27334;BME280;14817;57.104;-2.094;2023-04-25T12:08:13;100862.41;;;8.92;100.00
27334;BME280;14817;57.104;-2.094;2023-04-25T12:10:45;100867.28;;;9.17;100.00
27334;BME280;14817;57.104;-2.094;2023-04-25T12:13:24;100863.31;;;9.12;100.00
27334;BME280;14817;57.104;-2.094;2023-04-25T12:15:54;100862.84;;;9.47;100.00
27334;BME280;14817;57.104;-2.094;2023-04-25T12:18:25;100857.78;;;9.44;100.00
27334;BME280;14817;57.104;-2.094;2023-04-25T12:20:54;100867.34;;;8.33;100.00
27334;BME280;14817;57.104;-2.094;2023-04-25T12:23:28;100862.84;;;8.34;100.00
27334;BME280;14817;57.104;-2.094;2023-04-25T12:25:57;100863.72;;;9.07;100.00
27334;BME280;14817;57.104;-2.094;2023-04-25T12:28:25;100856.91;;;9.34;100.00
27334;BME280;14817;57.104;-2.094;2023-04-25T12:30:58;100858.56;;;9.95;100.00
27334;BME280;14817;57.104;-2.094;2023-04-25T12:33:27;100856.16;;;9.92;100.00
27334;BME280;14817;57.104;-2.094;2023-04-25T12:35:55;100851.13;;;10.18;100.00
27334;BME280;14817;57.104;-2.094;2023-04-25T12:38:30;100863.03;;;9.75;100.00
27334;BME280;14817;57.104;-2.094;2023-04-25T12:40:58;100865.75;;;8.94;100.00
27334;BME280;14817;57.104;-2.094;2023-04-25T12:43:25;100870.56;;;9.00;100.00
27334;BME280;14817;57.104;-2.094;2023-04-25T12:45:53;100877.56;;;8.28;100.00
27334;BME280;14817;57.104;-2.094;2023-04-25T12:48:20;100892.09;;;7.48;100.00
27334;BME280;14817;57.104;-2.094;2023-04-25T12:50:48;100891.91;;;7.06;100.00
27334;BME280;14817;57.104;-2.094;2023-04-25T12:53:20;100900.84;;;7.16;100.00
27334;BME280;14817;57.104;-2.094;2023-04-25T12:55:47;100898.41;;;7.13;100.00
27334;BME280;14817;57.104;-2.094;2023-04-25T12:58:17;100902.25;;;6.87;100.00
27334;BME280;14817;57.104;-2.094;2023-04-25T13:00:45;100910.06;;;7.24;100.00